Aérodrome :
LOGIN :

S'inscrire | Disclaimer

   EN    FR    IT 

 










Légende :    VFR   VFR Marginal   IFR   IFR Intensif   IFR Très Intensif
Visi : 
Plafond : 
>= 8 km
>= 3000ft
5 à 8 km
1000 à 3000 ft
1500m à 5 km
500 à 1000 ft
800 à 1500m
200 à 500 ft
< 800m
< 200 ft
Symboles :   Orages  Brouillard  Fortes neiges  Fortes précipitations  Vent > 20 kt
SIGMETs :   Divers  Orages  Givrage  Turbulence  Onde Orograph.  Cendres Volcan.







- Altitude de l'aérodrome : 1411 ft
- Code IATA : SZG


LOWS - Salzburg

DERNIER METAR :
  • 170950Z 03005KT 360V060 9999 FEW020 SCT060 BKN100 19/12 Q1018 NOSIG

METARs EXPIRÉS :
  • 170920Z VRB03KT 9999 FEW020 SCT060 BKN100 19/13 Q1019 NOSIG
  • 170850Z 35005KT 9999 FEW005 SCT060 BKN100 18/15 Q1018 NOSIG
  • 170820Z 00000KT 9999 FEW005 SCT050 BKN065 18/14 Q1018 NOSIG
  • 170750Z VRB01KT 9999 FEW003 SCT040 BKN100 17/15 Q1018 NOSIG
  • 170720Z 17003KT 9000 FEW001 SCT050 BKN100 17/15 Q1018 NOSIG

TAF TAF LOWS
Valide du 17 à 06h jusqu'au 18 à 06h UTC


170515Z 1706/1806 16003KT 5000 BR FEW001 BKN060 TX19/1713Z TN11/1805Z
PROB40
TEMPO 1706/1707 0500 FG SCT002
BECMG 1707/1709 31006KT 9999 NSW SCT030 SCT060
TEMPO 1709/1721 32010G20KT -SHRA BKN040
TEMPO 1721/1806 0500 FG SCT002
Pas de NOTAMs connus pour ce terrain.



MET'MAP, la Météo Aéronautique d'un coup d'oeil ! - Copyright ORBIFLY Décembre 2007 - Disclaimer

ORBIFLY MET'MAP TEAM :

Programmation & Développement : Alexandra Zaïnal
Conception & Développement : Baudouin d'Aumeries
Co-Programmation & Développement : Marc-Olivier Méhu
Soutien technique & logistique : Manuel Goepfert

Contact : metmap@orbifly.com




SOURCES & CREDITS :

   NOAA